createdAt,value
2018-07-08T00:01:06.314Z,3.80
2018-07-08T00:03:37.421Z,4.53
2018-07-08T00:06:08.133Z,4.13
2018-07-08T00:08:38.785Z,3.90
2018-07-08T00:11:09.892Z,4.63
2018-07-08T00:13:40.895Z,3.77
2018-07-08T00:16:11.487Z,4.03
2018-07-08T00:18:43.046Z,3.80
2018-07-08T00:21:13.684Z,4.13
2018-07-08T00:23:44.458Z,4.43
2018-07-08T00:26:15.325Z,4.20
2018-07-08T00:28:46.355Z,4.30
2018-07-08T00:31:16.961Z,4.73
2018-07-08T00:33:48.085Z,3.87
2018-07-08T00:36:19.066Z,4.10
2018-07-08T00:38:50.096Z,4.43
2018-07-08T00:41:20.753Z,4.20
2018-07-08T00:43:52.054Z,4.50
2018-07-08T00:46:22.785Z,4.47
2018-07-08T00:48:53.525Z,3.83
2018-07-08T00:51:24.574Z,4.10
2018-07-08T00:53:55.589Z,3.73
2018-07-08T00:59:03.104Z,4.10
2018-07-08T01:01:33.769Z,4.33
2018-07-08T01:04:04.770Z,4.07
2018-07-08T01:06:35.918Z,4.87
2018-07-08T01:09:08.052Z,4.30
2018-07-08T01:11:38.997Z,4.40
2018-07-08T01:14:10.220Z,4.37
2018-07-08T01:16:41.050Z,4.23
2018-07-08T01:19:11.982Z,4.27
2018-07-08T01:21:43.570Z,3.80
2018-07-08T01:24:14.634Z,4.13
2018-07-08T01:26:45.925Z,3.90
2018-07-08T01:29:16.946Z,4.53
2018-07-08T01:31:47.901Z,4.07
2018-07-08T01:34:18.805Z,4.30
2018-07-08T01:36:49.349Z,4.47
2018-07-08T01:39:20.685Z,4.37
2018-07-08T01:41:51.353Z,3.97
2018-07-08T01:44:22.010Z,4.60
2018-07-08T01:46:53.490Z,4.47
2018-07-08T01:49:24.322Z,3.73
2018-07-08T01:51:55.102Z,4.00
2018-07-08T01:54:26.358Z,3.87
2018-07-08T01:56:57.026Z,4.67
2018-07-08T01:59:28.136Z,4.63
2018-07-08T02:01:59.225Z,3.60
2018-07-08T02:04:30.305Z,3.83
2018-07-08T02:07:01.022Z,5.03
2018-07-08T02:09:32.260Z,4.57
2018-07-08T02:12:02.970Z,4.30
2018-07-08T02:14:34.373Z,4.83
2018-07-08T02:17:04.741Z,4.03
2018-07-08T02:19:36.180Z,5.13
2018-07-08T02:22:07.470Z,4.27
2018-07-08T02:24:38.790Z,4.97
2018-07-08T02:27:10.224Z,4.43
2018-07-08T02:29:41.196Z,4.93
2018-07-08T02:32:12.298Z,5.17
2018-07-08T02:34:44.423Z,4.53
2018-07-08T02:37:15.460Z,4.43
2018-07-08T02:39:46.625Z,4.53
2018-07-08T02:42:17.686Z,4.70
2018-07-08T02:44:48.723Z,5.80
2018-07-08T02:47:20.098Z,4.60
2018-07-08T02:49:51.617Z,5.13
2018-07-08T02:52:22.885Z,5.10
2018-07-08T02:54:53.805Z,4.90
2018-07-08T02:57:24.801Z,4.70
2018-07-08T02:59:55.944Z,5.80
2018-07-08T03:02:26.261Z,5.20
2018-07-08T03:04:57.403Z,4.77
2018-07-08T03:07:27.981Z,5.20
2018-07-08T03:09:58.709Z,5.20
2018-07-08T03:12:30.199Z,5.80
2018-07-08T03:15:00.902Z,6.13
2018-07-08T03:17:31.510Z,5.50
2018-07-08T03:20:02.646Z,5.47
2018-07-08T03:22:33.540Z,5.20
2018-07-08T03:25:04.122Z,5.70
2018-07-08T03:27:35.613Z,5.87
2018-07-08T03:30:06.873Z,5.63
2018-07-08T03:32:37.466Z,4.77
2018-07-08T03:35:08.994Z,5.40
2018-07-08T03:37:39.696Z,5.33
2018-07-08T03:40:10.319Z,5.63
2018-07-08T03:42:41.234Z,5.30
2018-07-08T03:45:11.991Z,5.33
2018-07-08T03:47:42.654Z,5.30
2018-07-08T03:50:14.184Z,4.87
2018-07-08T03:52:44.825Z,5.63
2018-07-08T03:55:15.446Z,6.10
2018-07-08T03:57:46.505Z,4.60
2018-07-08T04:00:17.204Z,5.07
2018-07-08T04:02:47.798Z,5.60
2018-07-08T04:05:19.226Z,5.23
2018-07-08T04:07:49.757Z,4.70
2018-07-08T04:10:20.534Z,5.07
2018-07-08T04:12:52.122Z,4.47
2018-07-08T04:15:22.940Z,4.83
2018-07-08T04:17:59.759Z,4.77
2018-07-08T04:20:30.750Z,5.00
2018-07-08T04:23:02.144Z,4.70
2018-07-08T04:25:33.690Z,4.67
2018-07-08T04:28:05.447Z,5.03
2018-07-08T04:30:36.763Z,4.73
2018-07-08T04:33:07.678Z,4.67
2018-07-08T04:35:38.814Z,4.97
2018-07-08T04:38:09.994Z,4.97
2018-07-08T04:40:41.186Z,4.30
2018-07-08T04:43:11.729Z,4.20
2018-07-08T04:45:43.103Z,4.37
2018-07-08T04:48:13.955Z,4.20
2018-07-08T04:50:44.813Z,4.60
2018-07-08T04:53:15.417Z,4.20
2018-07-08T04:55:46.158Z,3.80
2018-07-08T04:58:17.355Z,3.93
2018-07-08T05:00:48.150Z,3.70
2018-07-08T05:03:19.243Z,4.83
2018-07-08T05:05:50.758Z,4.57
2018-07-08T05:08:21.345Z,3.70
2018-07-08T05:10:52.681Z,4.20
2018-07-08T05:13:24.127Z,4.13
2018-07-08T05:15:55.902Z,3.40
2018-07-08T05:18:26.481Z,4.07
2018-07-08T05:20:57.933Z,3.87
2018-07-08T05:23:28.742Z,4.30
2018-07-08T05:25:59.502Z,3.70
2018-07-08T05:28:31.225Z,3.90
2018-07-08T05:31:02.202Z,3.70
2018-07-08T05:33:32.833Z,3.50
2018-07-08T05:36:04.029Z,3.70
2018-07-08T05:38:35.555Z,4.77
2018-07-08T05:41:06.258Z,3.60
2018-07-08T05:43:37.725Z,3.77
2018-07-08T05:46:08.460Z,3.13
2018-07-08T05:48:39.333Z,3.93
2018-07-08T05:51:10.600Z,3.90
2018-07-08T05:53:41.516Z,3.27
2018-07-08T05:56:12.037Z,3.03
2018-07-08T05:58:43.178Z,3.57
2018-07-08T06:01:14.661Z,3.63
2018-07-08T06:03:45.896Z,3.37
2018-07-08T06:06:17.042Z,3.37
2018-07-08T06:08:47.931Z,3.47
2018-07-08T06:11:19.350Z,3.50
2018-07-08T06:13:50.573Z,3.20
2018-07-08T06:16:21.495Z,4.03
2018-07-08T06:18:52.302Z,3.77
2018-07-08T06:21:23.266Z,3.63
2018-07-08T06:23:53.910Z,3.33
2018-07-08T06:26:25.836Z,3.50
2018-07-08T06:28:56.971Z,3.03
2018-07-08T06:31:27.634Z,3.80
2018-07-08T06:33:58.205Z,3.33
2018-07-08T06:36:29.396Z,3.57
2018-07-08T06:39:00.035Z,3.57
2018-07-08T06:41:30.787Z,4.03
2018-07-08T06:44:01.405Z,3.30
2018-07-08T06:46:31.989Z,2.87
2018-07-08T06:49:02.733Z,3.40
2018-07-08T06:51:33.932Z,3.37
2018-07-08T06:54:04.710Z,3.40
2018-07-08T06:56:35.445Z,3.37
2018-07-08T06:59:06.009Z,3.03
2018-07-08T07:01:38.570Z,3.00
2018-07-08T07:04:09.541Z,4.10
2018-07-08T07:06:40.381Z,2.97
2018-07-08T07:09:11.961Z,3.60
2018-07-08T07:11:43.466Z,3.43
2018-07-08T07:14:14.823Z,3.10
2018-07-08T07:16:46.023Z,3.30
2018-07-08T07:19:20.814Z,3.00
2018-07-08T07:21:51.758Z,3.30
2018-07-08T07:24:25.363Z,2.90
2018-07-08T07:26:56.287Z,2.77
2018-07-08T07:29:27.384Z,2.90
2018-07-08T07:32:00.554Z,3.20
2018-07-08T07:34:32.025Z,3.03
2018-07-08T07:37:03.233Z,3.53
2018-07-08T07:39:35.353Z,3.10
2018-07-08T07:42:06.249Z,2.73
2018-07-08T07:44:38.276Z,3.53
2018-07-08T07:47:09.571Z,3.00
2018-07-08T07:49:40.317Z,3.33
2018-07-08T07:52:11.346Z,2.90
2018-07-08T07:54:42.982Z,2.97
2018-07-08T07:57:14.062Z,3.30
2018-07-08T07:59:44.587Z,3.40
2018-07-08T08:02:15.361Z,2.83
2018-07-08T08:04:45.942Z,2.90
2018-07-08T08:07:16.165Z,2.83
2018-07-08T08:09:46.624Z,3.17
2018-07-08T08:12:16.724Z,2.60
2018-07-08T08:14:47.635Z,2.80
2018-07-08T08:17:18.185Z,3.47
2018-07-08T08:19:48.788Z,2.80
2018-07-08T08:22:19.641Z,3.00
2018-07-08T08:24:50.789Z,3.03
2018-07-08T08:27:21.520Z,3.40
2018-07-08T08:29:52.106Z,2.73
2018-07-08T08:32:23.128Z,3.20
2018-07-08T08:34:56.912Z,2.80
2018-07-08T08:37:31.126Z,2.77
2018-07-08T08:40:01.779Z,3.10
2018-07-08T08:42:33.321Z,3.00
2018-07-08T08:45:04.117Z,2.60
2018-07-08T08:47:35.446Z,2.80
2018-07-08T08:50:06.988Z,3.03
2018-07-08T08:52:37.695Z,3.57
2018-07-08T08:55:09.333Z,3.10
2018-07-08T08:57:41.456Z,2.80
2018-07-08T09:00:16.758Z,3.23
2018-07-08T09:02:47.768Z,3.00
2018-07-08T09:05:18.281Z,3.57
2018-07-08T09:07:48.706Z,2.47
2018-07-08T09:10:19.733Z,2.90
2018-07-08T09:12:50.454Z,3.07
2018-07-08T09:15:20.978Z,3.53
2018-07-08T09:17:52.403Z,2.90
2018-07-08T09:20:22.645Z,2.77
2018-07-08T09:22:53.362Z,2.90
2018-07-08T09:25:24.329Z,2.80
2018-07-08T09:27:55.181Z,3.23
2018-07-08T09:30:26.326Z,2.87
2018-07-08T09:32:57.885Z,2.80
2018-07-08T09:35:28.640Z,2.80
2018-07-08T09:37:59.524Z,2.70
2018-07-08T09:40:30.433Z,3.07
2018-07-08T09:43:01.052Z,3.13
2018-07-08T09:45:31.668Z,2.90
2018-07-08T09:48:02.884Z,3.10
2018-07-08T09:50:33.425Z,2.80
2018-07-08T09:53:03.962Z,3.00
2018-07-08T09:55:34.993Z,2.60
2018-07-08T09:58:06.370Z,3.30
2018-07-08T10:00:36.875Z,3.20
2018-07-08T10:03:07.997Z,3.23
2018-07-08T10:05:38.546Z,3.00
2018-07-08T10:08:09.750Z,2.70
2018-07-08T10:10:40.625Z,3.20
2018-07-08T10:13:11.420Z,3.20
2018-07-08T10:15:42.702Z,3.27
2018-07-08T10:18:13.777Z,3.30
2018-07-08T10:20:44.918Z,3.30
2018-07-08T10:23:16.246Z,2.93
2018-07-08T10:25:46.855Z,3.00
2018-07-08T10:28:18.821Z,3.63
2018-07-08T10:30:50.467Z,2.90
2018-07-08T10:33:21.685Z,3.23
2018-07-08T10:35:56.662Z,2.83
2018-07-08T10:38:27.856Z,3.00
2018-07-08T10:40:58.364Z,2.70
2018-07-08T10:43:29.708Z,2.80
2018-07-08T10:46:00.305Z,2.93
2018-07-08T10:48:31.609Z,3.13
2018-07-08T10:51:02.777Z,2.90
2018-07-08T10:53:33.386Z,3.03
2018-07-08T10:56:04.399Z,2.50
2018-07-08T10:58:35.136Z,2.97
2018-07-08T11:01:05.509Z,2.57
2018-07-08T11:03:36.357Z,2.80
2018-07-08T11:06:07.014Z,2.90
2018-07-08T11:08:37.581Z,3.00
2018-07-08T11:11:09.048Z,2.93
2018-07-08T11:13:39.765Z,2.77
2018-07-08T11:16:10.673Z,2.87
2018-07-08T11:18:41.269Z,3.00
2018-07-08T11:21:11.859Z,3.00
2018-07-08T11:23:42.774Z,3.10
2018-07-08T11:26:13.446Z,2.67
2018-07-08T11:28:44.430Z,2.80
2018-07-08T11:31:15.051Z,2.80
2018-07-08T11:33:45.817Z,2.50
2018-07-08T11:36:16.402Z,2.60
2018-07-08T11:38:47.338Z,2.73
2018-07-08T11:41:17.947Z,2.37
2018-07-08T11:43:49.382Z,2.60
2018-07-08T11:46:19.935Z,2.83
2018-07-08T11:48:50.487Z,2.90
2018-07-08T11:51:21.514Z,2.60
2018-07-08T11:53:52.186Z,2.80
2018-07-08T11:56:22.753Z,2.73
2018-07-08T11:58:54.201Z,2.73
2018-07-08T12:01:25.106Z,2.70
2018-07-08T12:03:55.645Z,2.90
2018-07-08T12:06:26.568Z,2.43
2018-07-08T12:08:57.230Z,2.50
2018-07-08T12:11:27.883Z,2.63
2018-07-08T12:13:58.717Z,2.23
2018-07-08T12:16:29.306Z,2.60
2018-07-08T12:19:00.638Z,2.57
2018-07-08T12:21:31.646Z,2.80
2018-07-08T12:24:02.521Z,2.63
2018-07-08T12:26:34.207Z,2.47
2018-07-08T12:29:05.258Z,2.60
2018-07-08T12:31:36.157Z,2.97
2018-07-08T12:34:07.540Z,2.80
2018-07-08T12:36:39.181Z,2.60
2018-07-08T12:39:12.976Z,2.30
2018-07-08T12:41:43.994Z,2.40
2018-07-08T12:44:15.097Z,2.47
2018-07-08T12:46:45.713Z,2.37
2018-07-08T12:49:17.045Z,2.07
2018-07-08T12:51:47.849Z,2.50
2018-07-08T12:54:18.943Z,2.40
2018-07-08T12:56:49.540Z,2.07
2018-07-08T12:59:20.112Z,2.33
2018-07-08T13:01:51.023Z,2.37
2018-07-08T13:04:21.589Z,2.47
2018-07-08T13:06:52.137Z,2.10
2018-07-08T13:09:23.057Z,1.93
2018-07-08T13:11:54.065Z,2.17
2018-07-08T13:14:25.238Z,2.33
2018-07-08T13:16:55.782Z,2.27
2018-07-08T13:19:26.314Z,2.80
2018-07-08T13:21:57.387Z,2.50
2018-07-08T13:24:28.668Z,2.20
2018-07-08T13:26:59.258Z,2.30
2018-07-08T13:29:30.637Z,2.37
2018-07-08T13:32:01.231Z,2.40
2018-07-08T13:34:32.041Z,2.10
2018-07-08T13:37:02.751Z,1.90
2018-07-08T13:39:33.642Z,2.20
2018-07-08T13:42:04.389Z,2.63
2018-07-08T13:44:35.143Z,2.17
2018-07-08T13:47:06.182Z,1.90
2018-07-08T13:49:36.878Z,2.00
2018-07-08T13:52:07.421Z,2.00
2018-07-08T13:54:37.967Z,1.90
2018-07-08T13:57:09.378Z,2.30
2018-07-08T13:59:40.418Z,2.20
2018-07-08T14:02:11.010Z,2.00
2018-07-08T14:04:42.175Z,2.37
2018-07-08T14:07:12.818Z,2.57
2018-07-08T14:09:43.565Z,2.20
2018-07-08T14:12:14.491Z,2.20
2018-07-08T14:14:45.372Z,2.30
2018-07-08T14:17:16.397Z,2.20
2018-07-08T14:19:46.987Z,2.70
2018-07-08T14:22:18.094Z,1.87
2018-07-08T14:24:49.286Z,2.40
2018-07-08T14:27:19.857Z,2.13
2018-07-08T14:29:51.094Z,2.27
2018-07-08T14:32:21.714Z,2.30
2018-07-08T14:34:52.432Z,2.63
2018-07-08T14:37:23.118Z,2.30
2018-07-08T14:39:53.730Z,2.07
2018-07-08T14:42:24.961Z,2.30
2018-07-08T14:44:55.688Z,2.40
2018-07-08T14:47:26.234Z,2.17
2018-07-08T14:49:57.473Z,2.10
2018-07-08T14:52:28.052Z,2.20
2018-07-08T14:54:58.765Z,2.30
2018-07-08T14:57:29.890Z,2.23
2018-07-08T15:00:00.686Z,2.40
2018-07-08T15:02:31.646Z,1.93
2018-07-08T15:05:02.662Z,2.47
2018-07-08T15:07:33.217Z,1.80
2018-07-08T15:10:03.810Z,2.53
2018-07-08T15:12:34.761Z,2.70
2018-07-08T15:15:05.870Z,2.10
2018-07-08T15:17:35.933Z,2.13
2018-07-08T15:20:07.495Z,2.00
2018-07-08T15:22:38.162Z,2.10
2018-07-08T15:25:09.009Z,2.50
2018-07-08T15:27:39.649Z,2.10
2018-07-08T15:30:10.470Z,2.07
2018-07-08T15:32:41.846Z,2.00
2018-07-08T15:35:12.403Z,2.10
2018-07-08T15:37:43.092Z,2.07
2018-07-08T15:40:13.997Z,1.93
2018-07-08T15:42:44.846Z,2.10
2018-07-08T15:45:15.631Z,2.17
2018-07-08T15:47:46.224Z,2.03
2018-07-08T15:50:16.949Z,2.10
2018-07-08T15:52:47.641Z,1.90
2018-07-08T15:55:19.946Z,2.03
2018-07-08T15:57:52.317Z,2.27
2018-07-08T16:00:25.377Z,2.00
2018-07-08T16:02:56.343Z,2.00
2018-07-08T16:05:27.350Z,1.90
2018-07-08T16:07:58.101Z,1.93
2018-07-08T16:10:29.274Z,1.87
2018-07-08T16:12:59.954Z,2.00
2018-07-08T16:15:31.139Z,2.27
2018-07-08T16:18:03.325Z,2.37
2018-07-08T16:20:34.774Z,2.27
2018-07-08T16:23:05.325Z,2.30
2018-07-08T16:25:36.861Z,1.70
2018-07-08T16:28:07.461Z,2.00
2018-07-08T16:30:38.433Z,2.37
2018-07-08T16:33:09.062Z,1.73
2018-07-08T16:35:44.428Z,2.10
2018-07-08T16:38:15.537Z,2.13
2018-07-08T16:40:46.326Z,1.90
2018-07-08T16:43:16.910Z,2.17
2018-07-08T16:45:48.030Z,2.00
2018-07-08T16:48:18.851Z,2.10
2018-07-08T16:50:49.738Z,1.80
2018-07-08T16:53:20.435Z,1.80
2018-07-08T16:55:51.306Z,2.07
2018-07-08T16:58:22.185Z,1.67
2018-07-08T17:00:53.321Z,1.70
2018-07-08T17:03:23.882Z,2.10
2018-07-08T17:05:55.629Z,1.60
2018-07-08T17:08:26.291Z,1.87
2018-07-08T17:10:56.850Z,1.90
2018-07-08T17:13:27.831Z,2.03
2018-07-08T17:15:58.641Z,2.00
2018-07-08T17:18:29.229Z,2.00
2018-07-08T17:21:00.677Z,2.23
2018-07-08T17:23:31.389Z,1.90
2018-07-08T17:26:01.970Z,2.30
2018-07-08T17:28:33.080Z,1.80
2018-07-08T17:31:03.781Z,2.00
2018-07-08T17:33:34.509Z,2.10
2018-07-08T17:36:05.660Z,1.90
2018-07-08T17:38:36.343Z,1.97
2018-07-08T17:41:07.393Z,1.60
2018-07-08T17:43:38.710Z,1.87
2018-07-08T17:46:09.630Z,2.43
2018-07-08T17:48:41.029Z,1.83
2018-07-08T17:51:12.193Z,1.70
2018-07-08T17:53:42.826Z,2.00
2018-07-08T17:56:14.198Z,2.03
2018-07-08T17:58:45.393Z,1.90
2018-07-08T18:01:17.161Z,2.10
2018-07-08T18:03:48.186Z,1.90
2018-07-08T18:06:19.010Z,1.90
2018-07-08T18:08:49.576Z,2.00
2018-07-08T18:11:20.806Z,1.97
2018-07-08T18:13:52.061Z,1.90
2018-07-08T18:16:23.122Z,2.00
2018-07-08T18:18:54.247Z,1.90
2018-07-08T18:21:25.115Z,1.73
2018-07-08T18:23:55.646Z,2.10
2018-07-08T18:26:26.526Z,2.13
2018-07-08T18:28:57.129Z,1.90
2018-07-08T18:31:28.250Z,2.10
2018-07-08T18:33:58.990Z,2.10
2018-07-08T18:36:29.969Z,2.00
2018-07-08T18:39:01.013Z,1.90
2018-07-08T18:41:31.822Z,1.90
2018-07-08T18:44:02.225Z,1.90
2018-07-08T18:46:33.716Z,1.97
2018-07-08T18:49:04.526Z,2.40
2018-07-08T18:51:35.473Z,2.17
2018-07-08T18:54:06.645Z,2.00
2018-07-08T18:56:36.992Z,2.17
2018-07-08T18:59:07.562Z,2.07
2018-07-08T19:01:39.142Z,2.33
2018-07-08T19:04:09.820Z,1.90
2018-07-08T19:06:40.966Z,2.27
2018-07-08T19:09:11.639Z,2.00
2018-07-08T19:11:42.602Z,2.13
2018-07-08T19:14:13.277Z,2.53
2018-07-08T19:16:43.986Z,2.63
2018-07-08T19:19:14.686Z,2.50
2018-07-08T19:21:45.721Z,2.60
2018-07-08T19:24:16.365Z,2.40
2018-07-08T19:26:47.294Z,2.30
2018-07-08T19:29:18.497Z,2.77
2018-07-08T19:31:49.745Z,2.97
2018-07-08T19:34:20.373Z,2.63
2018-07-08T19:36:51.466Z,2.97
2018-07-08T19:39:22.063Z,3.20
2018-07-08T19:41:52.799Z,3.40
2018-07-08T19:44:24.249Z,3.43
2018-07-08T19:46:55.349Z,3.23
2018-07-08T19:49:26.031Z,3.30
2018-07-08T19:51:57.037Z,3.57
2018-07-08T19:54:27.807Z,3.77
2018-07-08T19:56:59.322Z,3.53
2018-07-08T19:59:30.991Z,3.33
2018-07-08T20:02:01.946Z,3.70
2018-07-08T20:04:32.565Z,3.90
2018-07-08T20:07:03.666Z,3.83
2018-07-08T20:09:34.362Z,4.50
2018-07-08T20:12:05.313Z,3.97
2018-07-08T20:14:36.554Z,4.27
2018-07-08T20:17:58.922Z,4.13
2018-07-08T20:20:32.402Z,4.50
2018-07-08T20:23:32.015Z,4.70
2018-07-08T20:26:43.934Z,4.97
2018-07-08T20:32:16.481Z,4.53
2018-07-08T20:34:47.322Z,4.90
2018-07-08T20:37:30.866Z,5.30
2018-07-08T20:40:04.587Z,4.87
2018-07-08T20:42:48.197Z,5.10
2018-07-08T20:45:21.309Z,5.27
2018-07-08T20:47:53.809Z,5.40
2018-07-08T20:50:29.434Z,5.27
2018-07-08T20:53:04.636Z,4.70
2018-07-08T20:55:38.052Z,4.87
2018-07-08T20:58:09.330Z,5.20
2018-07-08T21:00:42.817Z,4.77
2018-07-08T21:03:17.370Z,5.43
2018-07-08T21:09:18.937Z,4.80
2018-07-08T21:12:00.872Z,4.70
2018-07-08T21:14:34.010Z,4.97
2018-07-08T21:17:04.955Z,4.70
2018-07-08T21:19:36.217Z,4.77
2018-07-08T21:22:07.166Z,4.90
2018-07-08T21:24:37.921Z,4.90
2018-07-08T21:27:09.221Z,5.40
2018-07-08T21:29:39.811Z,5.10
2018-07-08T21:32:10.570Z,5.43
2018-07-08T21:34:41.786Z,6.03
2018-07-08T21:37:12.393Z,5.10
2018-07-08T21:39:42.972Z,4.97
2018-07-08T21:42:14.386Z,5.40
2018-07-08T21:44:45.271Z,5.50
2018-07-08T21:47:16.161Z,5.30
2018-07-08T21:49:47.217Z,4.83
2018-07-08T21:52:18.143Z,5.57
2018-07-08T21:54:48.887Z,5.63
2018-07-08T21:57:20.518Z,6.17
2018-07-08T21:59:52.257Z,5.87
2018-07-08T22:02:23.470Z,5.40
2018-07-08T22:04:54.121Z,5.33
2018-07-08T22:07:30.126Z,5.40
2018-07-08T22:10:00.902Z,6.30
2018-07-08T22:12:31.764Z,6.20
2018-07-08T22:15:03.044Z,5.77
2018-07-08T22:17:34.025Z,6.03
2018-07-08T22:20:05.466Z,6.10
2018-07-08T22:22:36.333Z,5.80
2018-07-08T22:25:06.930Z,6.53
2018-07-08T22:27:39.145Z,6.00
2018-07-08T22:30:09.726Z,6.90
2018-07-08T22:32:40.797Z,6.17
2018-07-08T22:35:11.787Z,6.60
2018-07-08T22:37:42.534Z,6.50
2018-07-08T22:40:13.070Z,6.57
2018-07-08T22:42:43.985Z,6.90
2018-07-08T22:45:14.914Z,6.07
2018-07-08T22:47:45.871Z,6.30
2018-07-08T22:50:16.429Z,6.23
2018-07-08T22:52:47.466Z,6.10
2018-07-08T22:55:18.421Z,6.80
2018-07-08T22:57:50.285Z,7.00
2018-07-08T23:00:31.355Z,6.50
2018-07-08T23:04:09.521Z,6.90
2018-07-08T23:06:40.061Z,7.30
2018-07-08T23:09:10.855Z,7.40
2018-07-08T23:11:41.946Z,7.30
2018-07-08T23:14:12.768Z,7.70
2018-07-08T23:16:43.837Z,7.80
2018-07-08T23:19:15.337Z,7.33
2018-07-08T23:21:46.326Z,7.23
2018-07-08T23:24:17.038Z,6.77
2018-07-08T23:26:47.625Z,7.60
2018-07-08T23:29:19.709Z,7.80
2018-07-08T23:31:51.111Z,7.47
2018-07-08T23:34:22.406Z,8.40
2018-07-08T23:36:53.825Z,8.27
2018-07-08T23:39:24.888Z,8.23
2018-07-08T23:41:55.360Z,9.00
2018-07-08T23:44:26.156Z,7.93
2018-07-08T23:46:56.753Z,9.10
2018-07-08T23:49:27.786Z,9.00
2018-07-08T23:51:58.971Z,9.20
2018-07-08T23:54:29.610Z,8.77
2018-07-08T23:57:00.689Z,8.80
2018-07-08T23:59:31.769Z,8.43
